sensor_id;sensor_type;location;lat;lon;timestamp;pressure;altitude;pressure_sealevel;temperature;humidity
17649;BME280;8943;51.110;-4.158;2022-08-24T00:00:19;100952.94;;;24.94;53.92
17649;BME280;8943;51.110;-4.158;2022-08-24T00:02:51;100962.31;;;24.91;53.87
17649;BME280;8943;51.110;-4.158;2022-08-24T00:05:20;100961.28;;;24.92;53.91
17649;BME280;8943;51.110;-4.158;2022-08-24T00:07:53;100956.25;;;24.89;54.17
17649;BME280;8943;51.110;-4.158;2022-08-24T00:10:23;100954.78;;;24.93;54.07
17649;BME280;8943;51.110;-4.158;2022-08-24T00:12:52;100953.09;;;24.92;54.20
17649;BME280;8943;51.110;-4.158;2022-08-24T00:15:23;100954.78;;;24.93;54.11
17649;BME280;8943;51.110;-4.158;2022-08-24T00:17:52;100961.53;;;24.98;54.17
17649;BME280;8943;51.110;-4.158;2022-08-24T00:20:20;100970.34;;;25.00;54.00
17649;BME280;8943;51.110;-4.158;2022-08-24T00:22:49;100967.22;;;25.03;54.23
17649;BME280;8943;51.110;-4.158;2022-08-24T00:25:20;100960.06;;;25.02;54.17
17649;BME280;8943;51.110;-4.158;2022-08-24T00:27:50;100965.13;;;25.05;54.20
17649;BME280;8943;51.110;-4.158;2022-08-24T00:30:20;100952.72;;;24.96;54.51
17649;BME280;8943;51.110;-4.158;2022-08-24T00:32:50;100952.72;;;24.96;54.66
17649;BME280;8943;51.110;-4.158;2022-08-24T00:35:20;100962.34;;;24.98;54.58
17649;BME280;8943;51.110;-4.158;2022-08-24T00:37:49;100958.41;;;25.01;54.27
17649;BME280;8943;51.110;-4.158;2022-08-24T00:40:21;100946.88;;;24.99;54.21
17649;BME280;8943;51.110;-4.158;2022-08-24T00:42:51;100954.00;;;25.00;54.38
17649;BME280;8943;51.110;-4.158;2022-08-24T00:45:20;100947.28;;;25.02;54.49
17649;BME280;8943;51.110;-4.158;2022-08-24T00:47:56;100940.13;;;24.95;54.76
17649;BME280;8943;51.110;-4.158;2022-08-24T00:50:29;100946.41;;;24.95;54.39
17649;BME280;8943;51.110;-4.158;2022-08-24T00:53:04;100934.91;;;25.00;54.44
17649;BME280;8943;51.110;-4.158;2022-08-24T00:55:36;100934.69;;;24.95;54.79
17649;BME280;8943;51.110;-4.158;2022-08-24T00:58:08;100932.13;;;24.93;54.80
17649;BME280;8943;51.110;-4.158;2022-08-24T01:00:46;100933.25;;;24.99;54.71
17649;BME280;8943;51.110;-4.158;2022-08-24T01:03:17;100927.13;;;24.97;54.68
17649;BME280;8943;51.110;-4.158;2022-08-24T01:05:45;100931.34;;;24.99;54.51
17649;BME280;8943;51.110;-4.158;2022-08-24T01:08:14;100924.63;;;24.95;54.79
17649;BME280;8943;51.110;-4.158;2022-08-24T01:10:46;100924.41;;;24.97;54.85
17649;BME280;8943;51.110;-4.158;2022-08-24T01:13:15;100933.63;;;24.96;55.01
17649;BME280;8943;51.110;-4.158;2022-08-24T01:15:48;100930.91;;;24.96;54.79
17649;BME280;8943;51.110;-4.158;2022-08-24T01:18:22;100931.53;;;24.98;54.83
17649;BME280;8943;51.110;-4.158;2022-08-24T01:21:13;100940.75;;;24.97;55.02
17649;BME280;8943;51.110;-4.158;2022-08-24T01:23:50;100936.13;;;24.90;54.95
17649;BME280;8943;51.110;-4.158;2022-08-24T01:26:22;100932.56;;;24.90;55.10
17649;BME280;8943;51.110;-4.158;2022-08-24T01:28:56;100926.91;;;24.91;55.20
17649;BME280;8943;51.110;-4.158;2022-08-24T01:31:27;100925.59;;;24.87;55.22
17649;BME280;8943;51.110;-4.158;2022-08-24T01:33:55;100921.59;;;24.83;55.54
17649;BME280;8943;51.110;-4.158;2022-08-24T01:36:28;100926.66;;;24.86;55.04
17649;BME280;8943;51.110;-4.158;2022-08-24T01:39:03;100932.50;;;24.83;55.26
17649;BME280;8943;51.110;-4.158;2022-08-24T01:41:33;100928.31;;;24.81;55.83
17649;BME280;8943;51.110;-4.158;2022-08-24T01:44:01;100929.16;;;24.81;55.65
17649;BME280;8943;51.110;-4.158;2022-08-24T01:46:31;100929.34;;;24.80;55.96
17649;BME280;8943;51.110;-4.158;2022-08-24T01:48:59;100923.91;;;24.80;55.65
17649;BME280;8943;51.110;-4.158;2022-08-24T01:51:29;100931.88;;;24.81;55.89
17649;BME280;8943;51.110;-4.158;2022-08-24T01:54:01;100934.81;;;24.80;55.83
17649;BME280;8943;51.110;-4.158;2022-08-24T01:56:30;100940.28;;;24.86;55.52
17649;BME280;8943;51.110;-4.158;2022-08-24T01:58:59;100943.63;;;24.88;55.71
17649;BME280;8943;51.110;-4.158;2022-08-24T02:01:29;100940.91;;;24.88;55.64
17649;BME280;8943;51.110;-4.158;2022-08-24T02:04:01;100943.00;;;24.86;55.76
17649;BME280;8943;51.110;-4.158;2022-08-24T02:06:30;100940.06;;;24.88;55.38
17649;BME280;8943;51.110;-4.158;2022-08-24T02:09:01;100938.00;;;24.90;55.31
17649;BME280;8943;51.110;-4.158;2022-08-24T02:11:31;100944.94;;;24.92;55.33
17649;BME280;8943;51.110;-4.158;2022-08-24T02:13:59;100939.09;;;24.96;55.48
17649;BME280;8943;51.110;-4.158;2022-08-24T02:16:28;100939.72;;;24.98;55.38
17649;BME280;8943;51.110;-4.158;2022-08-24T02:18:57;100939.72;;;24.98;55.65
17649;BME280;8943;51.110;-4.158;2022-08-24T02:21:25;100934.25;;;24.98;55.46
17649;BME280;8943;51.110;-4.158;2022-08-24T02:23:53;100939.09;;;25.02;55.30
17649;BME280;8943;51.110;-4.158;2022-08-24T02:26:23;100930.31;;;25.00;55.27
17649;BME280;8943;51.110;-4.158;2022-08-24T02:28:57;100931.75;;;25.03;55.34
17649;BME280;8943;51.110;-4.158;2022-08-24T02:31:29;100932.22;;;25.06;55.28
17649;BME280;8943;51.110;-4.158;2022-08-24T02:33:58;100931.38;;;25.06;55.39
17649;BME280;8943;51.110;-4.158;2022-08-24T02:36:26;100933.66;;;25.02;55.01
17649;BME280;8943;51.110;-4.158;2022-08-24T02:38:55;100930.94;;;25.02;55.27
17649;BME280;8943;51.110;-4.158;2022-08-24T02:41:27;100930.09;;;25.02;55.19
17649;BME280;8943;51.110;-4.158;2022-08-24T02:43:56;100934.31;;;25.04;55.51
17649;BME280;8943;51.110;-4.158;2022-08-24T02:46:27;100931.38;;;25.06;55.29
17649;BME280;8943;51.110;-4.158;2022-08-24T02:48:57;100927.16;;;25.03;55.38
17649;BME280;8943;51.110;-4.158;2022-08-24T02:51:39;100926.31;;;25.03;55.29
17649;BME280;8943;51.110;-4.158;2022-08-24T02:54:12;100927.97;;;24.97;55.01
17649;BME280;8943;51.110;-4.158;2022-08-24T02:56:45;100933.41;;;24.97;55.46
17649;BME280;8943;51.110;-4.158;2022-08-24T02:59:14;100928.34;;;24.87;55.47
17649;BME280;8943;51.110;-4.158;2022-08-24T03:01:44;100921.44;;;24.91;55.47
17649;BME280;8943;51.110;-4.158;2022-08-24T03:04:16;100925.81;;;24.86;55.35
17649;BME280;8943;51.110;-4.158;2022-08-24T03:06:44;100930.44;;;24.85;55.56
17649;BME280;8943;51.110;-4.158;2022-08-24T03:09:16;100924.53;;;24.82;55.66
17649;BME280;8943;51.110;-4.158;2022-08-24T03:11:46;100930.81;;;24.82;55.57
17649;BME280;8943;51.110;-4.158;2022-08-24T03:14:14;100923.31;;;24.84;55.28
17649;BME280;8943;51.110;-4.158;2022-08-24T03:16:44;100929.34;;;24.80;55.78
17649;BME280;8943;51.110;-4.158;2022-08-24T03:19:14;100931.63;;;24.76;55.57
17649;BME280;8943;51.110;-4.158;2022-08-24T03:21:44;100935.59;;;24.74;55.69
17649;BME280;8943;51.110;-4.158;2022-08-24T03:24:12;100933.22;;;24.64;55.82
17649;BME280;8943;51.110;-4.158;2022-08-24T03:26:41;100934.13;;;24.71;55.70
17649;BME280;8943;51.110;-4.158;2022-08-24T03:29:16;100937.09;;;24.76;55.42
17649;BME280;8943;51.110;-4.158;2022-08-24T03:31:46;100933.69;;;24.74;55.53
17649;BME280;8943;51.110;-4.158;2022-08-24T03:34:18;100936.44;;;24.74;55.71
17649;BME280;8943;51.110;-4.158;2022-08-24T03:36:47;100930.72;;;24.69;55.97
17649;BME280;8943;51.110;-4.158;2022-08-24T03:39:16;100929.91;;;24.69;55.63
17649;BME280;8943;51.110;-4.158;2022-08-24T03:41:45;100923.81;;;24.66;55.83
17649;BME280;8943;51.110;-4.158;2022-08-24T03:44:14;100927.00;;;24.70;55.50
17649;BME280;8943;51.110;-4.158;2022-08-24T03:46:48;100930.72;;;24.69;55.51
17649;BME280;8943;51.110;-4.158;2022-08-24T03:49:19;100931.16;;;24.66;55.95
17649;BME280;8943;51.110;-4.158;2022-08-24T03:51:48;100935.56;;;24.67;55.81
17649;BME280;8943;51.110;-4.158;2022-08-24T03:54:17;100931.19;;;24.73;55.54
17649;BME280;8943;51.110;-4.158;2022-08-24T03:56:45;100930.31;;;24.65;55.59
17649;BME280;8943;51.110;-4.158;2022-08-24T03:59:15;100941.25;;;24.72;55.58
17649;BME280;8943;51.110;-4.158;2022-08-24T04:01:45;100933.22;;;24.64;55.78
17649;BME280;8943;51.110;-4.158;2022-08-24T04:04:14;100925.72;;;24.66;55.78
17649;BME280;8943;51.110;-4.158;2022-08-24T04:06:42;100932.00;;;24.66;55.96
17649;BME280;8943;51.110;-4.158;2022-08-24T04:09:12;100928.56;;;24.58;56.21
17649;BME280;8943;51.110;-4.158;2022-08-24T04:11:41;100941.63;;;24.69;55.92
17649;BME280;8943;51.110;-4.158;2022-08-24T04:14:15;100937.44;;;24.66;55.82
17649;BME280;8943;51.110;-4.158;2022-08-24T04:16:53;100947.09;;;24.69;55.78
17649;BME280;8943;51.110;-4.158;2022-08-24T04:19:23;100963.00;;;24.65;55.69
17649;BME280;8943;51.110;-4.158;2022-08-24T04:21:52;100971.34;;;24.57;55.92
17649;BME280;8943;51.110;-4.158;2022-08-24T04:24:21;100969.84;;;24.33;55.88
17649;BME280;8943;51.110;-4.158;2022-08-24T04:26:49;100970.22;;;24.02;56.89
17649;BME280;8943;51.110;-4.158;2022-08-24T04:29:19;100976.41;;;23.75;57.54
17649;BME280;8943;51.110;-4.158;2022-08-24T04:31:47;100982.91;;;23.59;57.45
17649;BME280;8943;51.110;-4.158;2022-08-24T04:34:16;100980.59;;;23.41;57.87
17649;BME280;8943;51.110;-4.158;2022-08-24T04:36:45;100985.88;;;23.28;58.19
17649;BME280;8943;51.110;-4.158;2022-08-24T04:39:13;100980.06;;;23.16;58.14
17649;BME280;8943;51.110;-4.158;2022-08-24T04:41:41;100987.31;;;23.09;58.06
17649;BME280;8943;51.110;-4.158;2022-08-24T04:44:09;100988.78;;;22.97;58.59
17649;BME280;8943;51.110;-4.158;2022-08-24T04:46:39;100981.69;;;22.96;58.23
17649;BME280;8943;51.110;-4.158;2022-08-24T04:49:07;100985.47;;;22.86;58.62
17649;BME280;8943;51.110;-4.158;2022-08-24T04:51:36;100986.88;;;22.82;58.63
17649;BME280;8943;51.110;-4.158;2022-08-24T04:54:05;100993.31;;;22.90;58.57
17649;BME280;8943;51.110;-4.158;2022-08-24T04:56:34;100984.44;;;22.87;58.78
17649;BME280;8943;51.110;-4.158;2022-08-24T04:59:03;100983.81;;;22.85;59.01
17649;BME280;8943;51.110;-4.158;2022-08-24T05:01:32;101000.75;;;22.87;59.05
17649;BME280;8943;51.110;-4.158;2022-08-24T05:04:03;101003.13;;;22.91;59.02
17649;BME280;8943;51.110;-4.158;2022-08-24T05:06:31;100999.38;;;22.92;59.00
17649;BME280;8943;51.110;-4.158;2022-08-24T05:09:01;100998.34;;;22.93;58.94
17649;BME280;8943;51.110;-4.158;2022-08-24T05:11:29;100996.31;;;22.95;58.87
17649;BME280;8943;51.110;-4.158;2022-08-24T05:13:58;101006.41;;;23.01;59.22
17649;BME280;8943;51.110;-4.158;2022-08-24T05:16:26;101005.09;;;22.97;58.88
17649;BME280;8943;51.110;-4.158;2022-08-24T05:18:57;101011.50;;;23.04;58.78
17649;BME280;8943;51.110;-4.158;2022-08-24T05:21:27;101017.19;;;23.09;59.19
17649;BME280;8943;51.110;-4.158;2022-08-24T05:23:56;101026.19;;;23.09;58.90
17649;BME280;8943;51.110;-4.158;2022-08-24T05:26:26;101025.44;;;23.16;58.99
17649;BME280;8943;51.110;-4.158;2022-08-24T05:28:55;101025.25;;;23.17;58.69
17649;BME280;8943;51.110;-4.158;2022-08-24T05:31:25;101025.44;;;23.16;59.05
17649;BME280;8943;51.110;-4.158;2022-08-24T05:33:55;101021.31;;;23.20;58.89
17649;BME280;8943;51.110;-4.158;2022-08-24T05:36:25;101024.25;;;23.18;58.90
17649;BME280;8943;51.110;-4.158;2022-08-24T05:38:57;101022.91;;;23.14;58.86
17649;BME280;8943;51.110;-4.158;2022-08-24T05:41:27;101025.06;;;23.04;59.26
17649;BME280;8943;51.110;-4.158;2022-08-24T05:43:55;101023.47;;;22.95;59.15
17649;BME280;8943;51.110;-4.158;2022-08-24T05:46:23;101032.03;;;22.83;59.55
17649;BME280;8943;51.110;-4.158;2022-08-24T05:48:56;101042.91;;;22.83;59.53
17649;BME280;8943;51.110;-4.158;2022-08-24T05:51:25;101036.16;;;22.79;59.79
17649;BME280;8943;51.110;-4.158;2022-08-24T05:53:55;101039.44;;;22.75;60.00
17649;BME280;8943;51.110;-4.158;2022-08-24T05:56:25;101042.81;;;22.77;60.22
17649;BME280;8943;51.110;-4.158;2022-08-24T05:58:57;101045.16;;;22.80;60.12
17649;BME280;8943;51.110;-4.158;2022-08-24T06:01:26;101053.13;;;22.81;60.18
17649;BME280;8943;51.110;-4.158;2022-08-24T06:03:55;101051.44;;;22.80;60.00
17649;BME280;8943;51.110;-4.158;2022-08-24T06:06:24;101051.25;;;22.82;60.18
17649;BME280;8943;51.110;-4.158;2022-08-24T06:08:56;101058.19;;;22.84;60.13
17649;BME280;8943;51.110;-4.158;2022-08-24T06:11:27;101061.22;;;22.90;60.15
17649;BME280;8943;51.110;-4.158;2022-08-24T06:13:58;101057.81;;;22.87;60.22
17649;BME280;8943;51.110;-4.158;2022-08-24T06:16:27;101064.97;;;22.88;59.92
17649;BME280;8943;51.110;-4.158;2022-08-24T06:18:55;101071.06;;;22.91;60.04
17649;BME280;8943;51.110;-4.158;2022-08-24T06:21:25;101077.16;;;22.93;59.87
17649;BME280;8943;51.110;-4.158;2022-08-24T06:23:56;101075.34;;;22.85;60.16
17649;BME280;8943;51.110;-4.158;2022-08-24T06:26:24;101077.88;;;22.86;60.21
17649;BME280;8943;51.110;-4.158;2022-08-24T06:29:15;101081.81;;;22.84;60.06
17649;BME280;8943;51.110;-4.158;2022-08-24T06:31:45;101084.34;;;22.85;60.27
17649;BME280;8943;51.110;-4.158;2022-08-24T06:34:22;101083.31;;;22.86;60.00
17649;BME280;8943;51.110;-4.158;2022-08-24T06:36:51;101082.25;;;22.87;60.40
17649;BME280;8943;51.110;-4.158;2022-08-24T06:39:21;101077.38;;;22.83;60.35
17649;BME280;8943;51.110;-4.158;2022-08-24T06:41:51;101078.91;;;22.85;60.32
17649;BME280;8943;51.110;-4.158;2022-08-24T06:44:19;101081.09;;;22.90;59.88
17649;BME280;8943;51.110;-4.158;2022-08-24T06:46:47;101079.88;;;22.93;60.31
17649;BME280;8943;51.110;-4.158;2022-08-24T06:49:15;101077.00;;;22.94;60.40
17649;BME280;8943;51.110;-4.158;2022-08-24T06:51:44;101078.50;;;23.11;60.24
17649;BME280;8943;51.110;-4.158;2022-08-24T06:54:18;101089.00;;;23.15;60.60
17649;BME280;8943;51.110;-4.158;2022-08-24T06:56:48;101078.97;;;23.30;60.06
17649;BME280;8943;51.110;-4.158;2022-08-24T06:59:16;101087.22;;;23.36;60.14
17649;BME280;8943;51.110;-4.158;2022-08-24T07:01:44;101090.06;;;23.43;60.08
17649;BME280;8943;51.110;-4.158;2022-08-24T07:04:13;101096.97;;;23.46;59.89
17649;BME280;8943;51.110;-4.158;2022-08-24T07:06:41;101095.84;;;23.55;59.96
17649;BME280;8943;51.110;-4.158;2022-08-24T07:09:10;101092.75;;;23.58;59.83
17649;BME280;8943;51.110;-4.158;2022-08-24T07:11:38;101088.28;;;23.65;59.77
17649;BME280;8943;51.110;-4.158;2022-08-24T07:14:08;101099.53;;;23.77;59.71
17649;BME280;8943;51.110;-4.158;2022-08-24T07:16:36;101099.13;;;23.80;59.90
17649;BME280;8943;51.110;-4.158;2022-08-24T07:19:05;101102.13;;;23.85;59.74
17649;BME280;8943;51.110;-4.158;2022-08-24T07:21:33;101093.13;;;23.84;59.75
17649;BME280;8943;51.110;-4.158;2022-08-24T07:24:03;101098.00;;;23.89;59.34
17649;BME280;8943;51.110;-4.158;2022-08-24T07:26:32;101105.13;;;23.90;59.33
17649;BME280;8943;51.110;-4.158;2022-08-24T07:29:03;101098.06;;;23.96;59.58
17649;BME280;8943;51.110;-4.158;2022-08-24T07:31:34;101087.44;;;24.01;59.61
17649;BME280;8943;51.110;-4.158;2022-08-24T07:34:05;101097.06;;;24.18;59.70
17649;BME280;8943;51.110;-4.158;2022-08-24T07:36:35;101095.91;;;24.27;59.71
17649;BME280;8943;51.110;-4.158;2022-08-24T07:39:09;101091.53;;;24.48;59.67
17649;BME280;8943;51.110;-4.158;2022-08-24T07:41:39;101098.34;;;24.58;59.56
17649;BME280;8943;51.110;-4.158;2022-08-24T07:44:28;101096.19;;;24.75;59.34
17649;BME280;8943;51.110;-4.158;2022-08-24T07:46:59;101104.88;;;24.85;59.54
17649;BME280;8943;51.110;-4.158;2022-08-24T07:49:47;101106.00;;;24.98;59.39
17649;BME280;8943;51.110;-4.158;2022-08-24T07:52:16;101109.25;;;25.08;59.02
17649;BME280;8943;51.110;-4.158;2022-08-24T07:54:44;101114.34;;;25.11;59.16
17649;BME280;8943;51.110;-4.158;2022-08-24T07:57:12;101108.06;;;25.17;59.03
17649;BME280;8943;51.110;-4.158;2022-08-24T07:59:41;101111.88;;;25.23;58.67
17649;BME280;8943;51.110;-4.158;2022-08-24T08:02:10;101109.22;;;25.29;58.89
17649;BME280;8943;51.110;-4.158;2022-08-24T08:04:40;101109.69;;;25.39;58.65
17649;BME280;8943;51.110;-4.158;2022-08-24T08:07:08;101115.00;;;25.48;58.79
17649;BME280;8943;51.110;-4.158;2022-08-24T08:09:37;101109.78;;;25.53;58.86
17649;BME280;8943;51.110;-4.158;2022-08-24T08:12:06;101113.84;;;25.70;58.72
17649;BME280;8943;51.110;-4.158;2022-08-24T08:14:34;101114.78;;;25.77;58.49
17649;BME280;8943;51.110;-4.158;2022-08-24T08:17:04;101120.25;;;25.84;58.14
17649;BME280;8943;51.110;-4.158;2022-08-24T08:19:34;101121.31;;;25.89;58.06
17649;BME280;8943;51.110;-4.158;2022-08-24T08:22:02;101118.81;;;25.88;58.21
17649;BME280;8943;51.110;-4.158;2022-08-24T08:24:47;101121.97;;;25.91;57.62
17649;BME280;8943;51.110;-4.158;2022-08-24T08:27:16;101116.50;;;25.91;57.76
17649;BME280;8943;51.110;-4.158;2022-08-24T08:29:46;101124.72;;;25.91;57.67
17649;BME280;8943;51.110;-4.158;2022-08-24T08:32:15;101125.34;;;25.93;57.35
17649;BME280;8943;51.110;-4.158;2022-08-24T08:34:47;101137.91;;;25.88;57.48
17649;BME280;8943;51.110;-4.158;2022-08-24T08:37:15;101132.03;;;25.91;57.48
17649;BME280;8943;51.110;-4.158;2022-08-24T08:39:44;101135.41;;;25.93;57.20
17649;BME280;8943;51.110;-4.158;2022-08-24T08:42:31;101142.09;;;25.90;57.41
17649;BME280;8943;51.110;-4.158;2022-08-24T08:45:16;101138.34;;;25.91;57.40
17649;BME280;8943;51.110;-4.158;2022-08-24T08:48:15;101139.19;;;25.92;57.23
17649;BME280;8943;51.110;-4.158;2022-08-24T08:51:09;101141.94;;;25.92;57.23
17649;BME280;8943;51.110;-4.158;2022-08-24T08:54:08;101146.78;;;25.97;57.09
17649;BME280;8943;51.110;-4.158;2022-08-24T08:56:45;101143.00;;;25.98;57.33
17649;BME280;8943;51.110;-4.158;2022-08-24T08:59:38;101140.88;;;26.00;56.94
17649;BME280;8943;51.110;-4.158;2022-08-24T09:02:21;101147.41;;;25.99;56.77
17649;BME280;8943;51.110;-4.158;2022-08-24T09:05:14;101147.16;;;25.93;56.67
17649;BME280;8943;51.110;-4.158;2022-08-24T09:07:54;101144.06;;;25.97;56.64
17649;BME280;8943;51.110;-4.158;2022-08-24T09:10:53;101150.81;;;26.07;56.50
17649;BME280;8943;51.110;-4.158;2022-08-24T09:13:36;101150.84;;;26.20;56.50
17649;BME280;8943;51.110;-4.158;2022-08-24T09:16:20;101157.41;;;26.33;56.39
17649;BME280;8943;51.110;-4.158;2022-08-24T09:19:08;101145.06;;;26.43;56.17
17649;BME280;8943;51.110;-4.158;2022-08-24T09:21:50;101150.56;;;26.57;55.85
17649;BME280;8943;51.110;-4.158;2022-08-24T09:24:37;101154.56;;;26.67;55.78
17649;BME280;8943;51.110;-4.158;2022-08-24T09:27:19;101153.75;;;26.80;55.61
17649;BME280;8943;51.110;-4.158;2022-08-24T09:30:03;101149.97;;;26.94;55.59
17649;BME280;8943;51.110;-4.158;2022-08-24T09:35:34;101146.19;;;27.22;55.18
17649;BME280;8943;51.110;-4.158;2022-08-24T09:38:15;101146.16;;;27.35;54.94
17649;BME280;8943;51.110;-4.158;2022-08-24T09:41:05;101139.00;;;27.41;54.48
17649;BME280;8943;51.110;-4.158;2022-08-24T09:50:18;101140.41;;;27.77;54.07
17649;BME280;8943;51.110;-4.158;2022-08-24T09:56:27;101150.25;;;27.97;53.56
17649;BME280;8943;51.110;-4.158;2022-08-24T09:59:09;101155.66;;;28.11;52.82
17649;BME280;8943;51.110;-4.158;2022-08-24T10:01:46;101157.34;;;28.12;52.52
17649;BME280;8943;51.110;-4.158;2022-08-24T10:04:29;101147.13;;;28.26;52.46
17649;BME280;8943;51.110;-4.158;2022-08-24T10:07:07;101148.75;;;28.46;52.25
17649;BME280;8943;51.110;-4.158;2022-08-24T10:09:57;101157.91;;;28.65;51.60
17649;BME280;8943;51.110;-4.158;2022-08-24T10:12:40;101149.47;;;28.67;50.18
17649;BME280;8943;51.110;-4.158;2022-08-24T10:15:16;101157.75;;;28.54;49.61
17649;BME280;8943;51.110;-4.158;2022-08-24T10:18:04;101157.63;;;28.42;49.77
17649;BME280;8943;51.110;-4.158;2022-08-24T10:20:48;101158.91;;;28.39;49.27
17649;BME280;8943;51.110;-4.158;2022-08-24T10:23:39;101155.16;;;28.34;49.20
17649;BME280;8943;51.110;-4.158;2022-08-24T10:26:16;101154.91;;;28.42;49.32
17649;BME280;8943;51.110;-4.158;2022-08-24T10:29:02;101148.09;;;28.51;48.99
17649;BME280;8943;51.110;-4.158;2022-08-24T10:34:35;101144.91;;;28.54;48.58
17649;BME280;8943;51.110;-4.158;2022-08-24T10:40:30;101143.28;;;28.46;48.39
17649;BME280;8943;51.110;-4.158;2022-08-24T10:43:14;101150.19;;;28.49;48.19
17649;BME280;8943;51.110;-4.158;2022-08-24T10:46:38;101134.94;;;28.60;48.28
17649;BME280;8943;51.110;-4.158;2022-08-24T10:52:42;101144.88;;;28.61;48.16
17649;BME280;8943;51.110;-4.158;2022-08-24T10:55:19;101150.59;;;28.53;47.38
17649;BME280;8943;51.110;-4.158;2022-08-24T10:58:03;101149.66;;;28.40;47.00
17649;BME280;8943;51.110;-4.158;2022-08-24T11:00:33;101150.09;;;28.24;46.92
17649;BME280;8943;51.110;-4.158;2022-08-24T11:03:10;101147.19;;;28.19;47.13
17649;BME280;8943;51.110;-4.158;2022-08-24T11:05:44;101141.88;;;28.31;47.69
17649;BME280;8943;51.110;-4.158;2022-08-24T11:08:20;101141.63;;;28.39;46.68
17649;BME280;8943;51.110;-4.158;2022-08-24T11:11:04;101154.84;;;28.48;47.05
17649;BME280;8943;51.110;-4.158;2022-08-24T11:13:35;101141.53;;;28.52;46.41
17649;BME280;8943;51.110;-4.158;2022-08-24T11:16:05;101144.41;;;28.64;46.28
17649;BME280;8943;51.110;-4.158;2022-08-24T11:18:51;101144.56;;;28.76;46.26
17649;BME280;8943;51.110;-4.158;2022-08-24T11:21:35;101150.59;;;28.84;46.38
17649;BME280;8943;51.110;-4.158;2022-08-24T11:24:08;101153.78;;;28.81;46.87
17649;BME280;8943;51.110;-4.158;2022-08-24T11:26:49;101150.22;;;28.81;47.32
17649;BME280;8943;51.110;-4.158;2022-08-24T11:29:21;101144.72;;;28.81;47.43
17649;BME280;8943;51.110;-4.158;2022-08-24T11:31:53;101145.25;;;28.96;46.89
17649;BME280;8943;51.110;-4.158;2022-08-24T11:34:33;101139.91;;;29.26;46.03
17649;BME280;8943;51.110;-4.158;2022-08-24T11:37:03;101144.34;;;29.27;46.33
17649;BME280;8943;51.110;-4.158;2022-08-24T11:39:34;101147.63;;;29.36;46.18
17649;BME280;8943;51.110;-4.158;2022-08-24T11:42:12;101143.13;;;29.41;46.28
17649;BME280;8943;51.110;-4.158;2022-08-24T11:44:47;101138.13;;;29.57;45.69
17649;BME280;8943;51.110;-4.158;2022-08-24T11:47:42;101136.47;;;29.74;45.92
17649;BME280;8943;51.110;-4.158;2022-08-24T11:50:32;101145.94;;;29.78;46.16
17649;BME280;8943;51.110;-4.158;2022-08-24T11:53:10;101141.28;;;29.97;46.07
17649;BME280;8943;51.110;-4.158;2022-08-24T11:55:44;101144.84;;;30.16;45.16
17649;BME280;8943;51.110;-4.158;2022-08-24T11:58:32;101149.28;;;30.17;43.37
17649;BME280;8943;51.110;-4.158;2022-08-24T12:01:05;101151.25;;;30.28;42.25
17649;BME280;8943;51.110;-4.158;2022-08-24T12:03:48;101154.88;;;30.40;39.95
17649;BME280;8943;51.110;-4.158;2022-08-24T12:06:41;101160.41;;;30.04;39.54
17649;BME280;8943;51.110;-4.158;2022-08-24T12:09:30;101157.75;;;29.60;40.09
17649;BME280;8943;51.110;-4.158;2022-08-24T12:12:08;101149.66;;;29.22;41.15
17649;BME280;8943;51.110;-4.158;2022-08-24T12:14:42;101158.47;;;29.06;41.31
17649;BME280;8943;51.110;-4.158;2022-08-24T12:17:15;101157.66;;;28.98;41.28
17649;BME280;8943;51.110;-4.158;2022-08-24T12:19:48;101168.56;;;28.80;40.94
17649;BME280;8943;51.110;-4.158;2022-08-24T12:22:19;101171.03;;;28.57;41.38
17649;BME280;8943;51.110;-4.158;2022-08-24T12:24:50;101170.53;;;28.35;41.72
17649;BME280;8943;51.110;-4.158;2022-08-24T12:27:23;101176.31;;;28.13;41.69
17649;BME280;8943;51.110;-4.158;2022-08-24T12:29:57;101186.50;;;27.86;41.82
17649;BME280;8943;51.110;-4.158;2022-08-24T12:32:34;101185.94;;;27.58;42.38
17649;BME280;8943;51.110;-4.158;2022-08-24T12:35:08;101192.91;;;27.34;43.30
17649;BME280;8943;51.110;-4.158;2022-08-24T12:37:41;101197.75;;;27.25;44.16
17649;BME280;8943;51.110;-4.158;2022-08-24T12:40:20;101197.97;;;27.30;44.40
17649;BME280;8943;51.110;-4.158;2022-08-24T12:42:52;101203.88;;;27.34;44.42
17649;BME280;8943;51.110;-4.158;2022-08-24T12:45:23;101214.59;;;27.35;44.50
17649;BME280;8943;51.110;-4.158;2022-08-24T12:47:56;101206.16;;;27.30;44.42
17649;BME280;8943;51.110;-4.158;2022-08-24T12:50:29;101211.41;;;27.32;45.15
17649;BME280;8943;51.110;-4.158;2022-08-24T12:53:29;101219.84;;;27.30;44.66
17649;BME280;8943;51.110;-4.158;2022-08-24T12:56:35;101218.16;;;27.16;44.24
17649;BME280;8943;51.110;-4.158;2022-08-24T12:59:16;101218.38;;;27.21;44.69
17649;BME280;8943;51.110;-4.158;2022-08-24T13:01:47;101225.53;;;27.35;45.02
17649;BME280;8943;51.110;-4.158;2022-08-24T13:04:32;101233.53;;;27.50;44.37
17649;BME280;8943;51.110;-4.158;2022-08-24T13:07:06;101229.94;;;27.56;44.28
17649;BME280;8943;51.110;-4.158;2022-08-24T13:09:38;101234.56;;;27.56;44.20
17649;BME280;8943;51.110;-4.158;2022-08-24T13:15:25;101231.22;;;27.54;44.16
17649;BME280;8943;51.110;-4.158;2022-08-24T13:17:56;101242.56;;;27.37;43.95
17649;BME280;8943;51.110;-4.158;2022-08-24T13:20:53;101242.56;;;27.17;44.17
17649;BME280;8943;51.110;-4.158;2022-08-24T13:23:22;101247.19;;;27.04;44.73
17649;BME280;8943;51.110;-4.158;2022-08-24T13:25:57;101244.63;;;26.95;44.65
17649;BME280;8943;51.110;-4.158;2022-08-24T13:28:41;101250.06;;;26.89;45.09
17649;BME280;8943;51.110;-4.158;2022-08-24T13:31:20;101241.47;;;26.85;45.77
17649;BME280;8943;51.110;-4.158;2022-08-24T13:33:53;101250.53;;;26.99;46.34
17649;BME280;8943;51.110;-4.158;2022-08-24T13:36:40;101234.59;;;27.29;47.37
17649;BME280;8943;51.110;-4.158;2022-08-24T13:39:19;101223.66;;;27.29;49.08
17649;BME280;8943;51.110;-4.158;2022-08-24T13:42:03;101219.81;;;27.83;49.60
17649;BME280;8943;51.110;-4.158;2022-08-24T13:44:49;101227.81;;;28.49;48.15
17649;BME280;8943;51.110;-4.158;2022-08-24T13:47:22;101220.69;;;29.12;47.17
17649;BME280;8943;51.110;-4.158;2022-08-24T13:50:03;101225.34;;;29.61;44.84